Time;durP1;ratioP1;P1;durP2;ratioP2;P2;SDS_P1;SDS_P2;PMS_P1;PMS_P2;Temp;Humidity;BMP_temperature;BMP_pressure;BME280_temperature;BME280_humidity;BME280_pressure;Samples;Min_cycle;Max_cycle;Signal;HPM_P1;HPM_P2
2022/02/23 00:05:45;;;;;;;36.97;13.00;;;;;;;2.85;68.67;98657.84;2173466;82;20979;-80
2022/02/23 00:08:45;;;;;;;34.20;12.53;;;;;;;2.82;69.12;98646.12;2173207;81;21020;-80
2022/02/23 00:11:46;;;;;;;40.77;13.57;;;;;;;2.82;69.24;98639.27;2173294;82;20917;-80
2022/02/23 00:14:46;;;;;;;36.80;15.37;;;;;;;2.79;69.47;98633.11;2173017;80;21036;-80
2022/02/23 00:17:47;;;;;;;37.60;13.53;;;;;;;2.77;69.75;98628.30;2173808;82;21273;-80
2022/02/23 00:20:48;;;;;;;46.10;15.50;;;;;;;2.72;69.89;98633.28;2173022;82;21012;-80
2022/02/23 00:23:48;;;;;;;41.90;14.83;;;;;;;2.70;70.04;98628.88;2173127;82;20957;-80
2022/02/23 00:26:49;;;;;;;44.77;15.07;;;;;;;2.67;70.20;98631.34;2173141;82;21004;-81
2022/02/23 00:29:49;;;;;;;41.67;15.60;;;;;;;2.65;70.40;98617.11;2172677;82;21035;-79
2022/02/23 00:32:50;;;;;;;38.03;15.77;;;;;;;2.66;70.59;98610.25;2172765;82;20996;-80
2022/02/23 00:35:50;;;;;;;36.30;14.43;;;;;;;2.67;70.35;98612.02;2172707;82;21008;-81
2022/02/23 00:38:51;;;;;;;46.07;15.93;;;;;;;2.70;70.41;98604.41;2172935;82;20985;-79
2022/02/23 00:41:52;;;;;;;42.47;15.20;;;;;;;2.71;70.28;98605.75;2173058;82;21004;-80
2022/02/23 00:44:52;;;;;;;37.00;14.80;;;;;;;2.75;70.32;98597.72;2172904;82;20996;-80
2022/02/23 00:47:53;;;;;;;48.70;16.27;;;;;;;2.76;70.10;98599.07;2172930;82;20961;-80
2022/02/23 00:50:53;;;;;;;43.27;14.90;;;;;;;2.78;70.04;98596.55;2173054;82;20961;-80
2022/02/23 00:53:54;;;;;;;37.30;13.60;;;;;;;2.82;70.17;98591.98;2172914;82;21004;-80
2022/02/23 00:56:55;;;;;;;44.43;14.33;;;;;;;2.82;70.04;98587.70;2172644;82;20969;-78
2022/02/23 00:59:57;;;;;;;49.10;15.23;;;;;;;2.82;69.96;98589.41;2172209;82;21368;-79
2022/02/23 01:02:58;;;;;;;40.13;15.17;;;;;;;2.80;69.96;98589.76;2172509;82;20973;-79
2022/02/23 01:05:58;;;;;;;42.77;14.73;;;;;;;2.78;70.00;98587.53;2172921;82;20968;-80
2022/02/23 01:08:59;;;;;;;40.70;14.83;;;;;;;2.79;70.01;98586.30;2172606;82;20933;-80
2022/02/23 01:11:59;;;;;;;40.63;15.70;;;;;;;2.83;69.94;98580.44;2172577;82;20941;-79
2022/02/23 01:15:00;;;;;;;40.73;14.23;;;;;;;2.84;69.88;98574.88;2172506;81;21090;-78
2022/02/23 01:18:01;;;;;;;40.73;15.43;;;;;;;2.84;69.84;98555.54;2173410;82;20965;-79
2022/02/23 01:21:01;;;;;;;43.60;14.90;;;;;;;2.83;69.63;98555.95;2172905;82;20961;-79
2022/02/23 01:24:02;;;;;;;43.33;15.27;;;;;;;2.87;69.85;98551.79;2173064;82;21317;-79
2022/02/23 01:27:03;;;;;;;42.03;15.20;;;;;;;2.90;69.71;98549.73;2173647;82;20925;-79
2022/02/23 01:30:03;;;;;;;43.37;14.17;;;;;;;2.90;69.45;98546.75;2173011;82;20956;-79
2022/02/23 01:33:04;;;;;;;40.03;14.50;;;;;;;2.91;69.15;98543.76;2173569;82;21024;-79
2022/02/23 01:36:04;;;;;;;39.27;15.53;;;;;;;2.89;69.10;98542.41;2173361;82;20964;-79
2022/02/23 01:39:05;;;;;;;50.27;15.87;;;;;;;2.89;69.29;98537.25;2173207;82;20980;-79
2022/02/23 01:42:05;;;;;;;52.17;15.33;;;;;;;2.89;68.97;98537.25;2173090;82;20972;-78
2022/02/23 01:45:06;;;;;;;41.63;15.13;;;;;;;2.86;69.23;98529.00;2172993;82;21423;-81
2022/02/23 01:48:07;;;;;;;45.20;15.43;;;;;;;2.87;69.20;98528.17;2173127;82;20944;-80
2022/02/23 01:51:07;;;;;;;45.13;15.37;;;;;;;2.88;68.94;98531.22;2173766;82;21000;-81
2022/02/23 01:54:08;;;;;;;37.43;14.90;;;;;;;2.89;68.97;98516.63;2173240;82;21032;-80
2022/02/23 01:57:08;;;;;;;48.73;16.27;;;;;;;2.90;69.06;98514.93;2172655;82;20976;-80
2022/02/23 02:00:08;;;;;;;46.67;16.00;;;;;;;2.88;68.92;98500.28;2173235;82;21364;-81
2022/02/23 02:03:09;;;;;;;40.80;15.17;;;;;;;2.87;68.84;98501.11;2173614;82;21356;-79
2022/02/23 02:06:10;;;;;;;36.27;13.17;;;;;;;2.87;68.81;98506.27;2173451;82;20953;-81
2022/02/23 02:09:10;;;;;;;35.93;13.50;;;;;;;2.86;68.51;98499.35;2173297;82;21380;-81
2022/02/23 02:12:11;;;;;;;43.77;15.03;;;;;;;2.84;68.61;98496.25;2173558;82;21348;-80
2022/02/23 02:15:11;;;;;;;37.93;13.43;;;;;;;2.79;68.71;98494.80;2173074;82;21067;-80
2022/02/23 02:18:12;;;;;;;41.17;14.10;;;;;;;2.81;68.51;98493.56;2172919;82;20965;-81
2022/02/23 02:21:12;;;;;;;43.13;14.30;;;;;;;2.80;68.75;98493.09;2173272;82;20999;-81
2022/02/23 02:24:13;;;;;;;40.30;12.90;;;;;;;2.78;68.77;98485.31;2173106;82;20964;-83
2022/02/23 02:27:13;;;;;;;39.70;12.93;;;;;;;2.77;68.79;98482.27;2172878;82;20992;-81
2022/02/23 02:30:14;;;;;;;42.30;14.03;;;;;;;2.76;68.78;98478.34;2172893;82;20960;-81
2022/02/23 02:33:14;;;;;;;40.60;13.23;;;;;;;2.76;68.84;98483.50;2172649;82;21024;-80
2022/02/23 02:36:15;;;;;;;38.47;12.50;;;;;;;2.75;68.94;98473.59;2172882;82;21415;-81
2022/02/23 02:39:15;;;;;;;47.03;14.27;;;;;;;2.75;68.91;98472.72;2173062;82;20969;-82
2022/02/23 02:42:18;;;;;;;42.50;13.47;;;;;;;2.75;68.86;98470.14;2173024;82;20937;-76
2022/02/23 02:45:18;;;;;;;43.63;14.33;;;;;;;2.77;68.96;98468.50;2172664;82;21088;-79
2022/02/23 02:48:19;;;;;;;38.50;13.17;;;;;;;2.82;68.92;98474.70;2173003;82;21332;-80
2022/02/23 02:51:19;;;;;;;38.43;13.40;;;;;;;2.85;68.85;98470.94;2173012;82;21388;-81
2022/02/23 02:54:20;;;;;;;46.10;13.73;;;;;;;2.85;68.96;98461.50;2173209;82;20984;-80
2022/02/23 02:57:20;;;;;;;38.07;12.63;;;;;;;2.87;68.91;98450.84;2173045;82;21364;-80
2022/02/23 03:00:21;;;;;;;36.83;13.47;;;;;;;2.92;68.71;98455.28;2172961;82;21348;-79
2022/02/23 03:03:21;;;;;;;34.73;12.73;;;;;;;2.96;68.89;98450.28;2172891;82;20984;-80
2022/02/23 03:06:22;;;;;;;39.40;13.77;;;;;;;2.98;68.76;98453.80;2173222;82;21303;-81
2022/02/23 03:09:23;;;;;;;40.43;12.57;;;;;;;3.02;68.75;98448.33;2173128;82;20977;-81
2022/02/23 03:12:24;;;;;;;36.70;12.40;;;;;;;3.05;68.63;98446.73;2173754;82;20956;-80
2022/02/23 03:15:24;;;;;;;29.43;12.07;;;;;;;3.12;68.34;98442.67;2172807;80;21032;-80
2022/02/23 03:18:25;;;;;;;39.00;13.20;;;;;;;3.11;67.99;98445.66;2174089;82;20989;-81
2022/02/23 03:21:26;;;;;;;37.77;12.47;;;;;;;3.11;68.51;98449.53;2173465;82;20999;-80
2022/02/23 03:24:26;;;;;;;39.23;12.50;;;;;;;3.13;68.20;98452.16;2173398;82;20957;-81
2022/02/23 03:27:27;;;;;;;44.37;13.73;;;;;;;3.12;68.43;98444.84;2173499;82;21003;-81
2022/02/23 03:30:27;;;;;;;39.97;13.40;;;;;;;3.14;68.35;98446.18;2173252;82;20920;-80
2022/02/23 03:33:28;;;;;;;32.17;11.43;;;;;;;3.16;68.24;98450.56;2172768;82;21004;-81
2022/02/23 03:36:29;;;;;;;40.87;13.23;;;;;;;3.17;68.42;98447.58;2172288;82;20952;-81
2022/02/23 03:39:30;;;;;;;35.43;13.27;;;;;;;3.16;68.57;98449.28;2172945;82;20992;-82
2022/02/23 03:42:30;;;;;;;35.70;12.20;;;;;;;3.13;68.87;98438.86;2172869;82;20973;-82
2022/02/23 03:45:30;;;;;;;29.57;11.07;;;;;;;3.11;69.25;98441.80;2172871;82;21016;-83
2022/02/23 03:48:31;;;;;;;33.00;12.17;;;;;;;3.11;69.51;98439.63;2173022;82;20957;-86
2022/02/23 03:51:31;;;;;;;34.03;11.97;;;;;;;4.54;83.89;98436.50;2163303;82;21293;-83
2022/02/23 03:54:32;;;;;;;31.73;11.13;;;;;;;8.56;77.68;98428.75;2173475;82;20953;-82
2022/02/23 03:57:32;;;;;;;32.20;10.80;;;;;;;11.12;64.68;98425.73;2173496;82;20984;-83
2022/02/23 04:00:33;;;;;;;24.50;9.47;;;;;;;9.92;55.80;98435.45;2172849;82;20976;-83
2022/02/23 04:03:33;;;;;;;21.80;8.70;;;;;;;8.00;57.23;98443.09;2173089;82;20949;-82
2022/02/23 04:06:34;;;;;;;22.53;8.97;;;;;;;6.49;59.92;98453.61;2173007;82;20972;-83
2022/02/23 04:09:34;;;;;;;23.30;8.70;;;;;;;5.61;62.74;98456.23;2172938;82;20952;-82
2022/02/23 04:12:35;;;;;;;24.80;9.07;;;;;;;4.93;64.80;98458.73;2173007;82;21371;-82
2022/02/23 04:15:35;;;;;;;25.40;8.67;;;;;;;4.45;67.63;98468.13;2180620;80;21411;-84
2022/02/23 04:18:36;;;;;;;16.23;7.50;;;;;;;4.04;70.17;98477.58;2189322;81;21387;-82
2022/02/23 04:21:36;;;;;;;22.93;7.80;;;;;;;3.66;71.27;98478.93;2189475;81;20995;-83
2022/02/23 04:24:37;;;;;;;18.70;8.27;;;;;;;3.42;72.21;98481.53;2189203;81;20960;-84
2022/02/23 04:27:37;;;;;;;19.50;8.87;;;;;;;3.25;72.71;98482.25;2189536;81;20969;-82
2022/02/23 04:30:38;;;;;;;19.93;8.40;;;;;;;3.16;73.43;98477.65;2189336;81;20952;-82
2022/02/23 04:33:38;;;;;;;19.63;7.93;;;;;;;3.09;74.27;98486.41;2188661;81;20992;-81
2022/02/23 04:36:39;;;;;;;21.47;8.30;;;;;;;3.02;75.29;98489.17;2189174;81;21372;-82
2022/02/23 04:39:39;;;;;;;23.23;8.03;;;;;;;2.93;75.60;98479.83;2189102;81;21003;-82
2022/02/23 04:42:40;;;;;;;19.90;8.10;;;;;;;2.88;76.53;98486.11;2189004;81;20991;-80
2022/02/23 04:45:40;;;;;;;20.27;7.93;;;;;;;2.86;78.01;98485.17;2189091;81;21003;-80
2022/02/23 04:48:41;;;;;;;18.67;9.13;;;;;;;2.82;78.31;98490.16;2189022;81;20948;-82
2022/02/23 04:51:41;;;;;;;14.90;7.43;;;;;;;2.79;78.03;98494.80;2188838;81;21343;-81
2022/02/23 04:54:42;;;;;;;18.07;8.33;;;;;;;2.80;78.61;98494.38;2189362;81;21011;-81
2022/02/23 04:57:42;;;;;;;15.63;8.13;;;;;;;2.79;78.88;98500.36;2189421;81;20963;-81
2022/02/23 05:00:43;;;;;;;21.60;8.27;;;;;;;2.82;79.20;98491.45;2189347;81;21015;-82
2022/02/23 05:03:44;;;;;;;18.33;8.30;;;;;;;2.79;79.59;98488.77;2189337;81;20980;-82
2022/02/23 05:06:44;;;;;;;23.53;8.87;;;;;;;2.73;79.76;98497.56;2189284;81;21010;-81
2022/02/23 05:09:45;;;;;;;19.83;8.60;;;;;;;2.73;79.79;98501.42;2189241;81;20951;-81
2022/02/23 05:12:45;;;;;;;11.87;7.00;;;;;;;2.75;80.33;98488.19;2189786;81;21003;-84
2022/02/23 05:15:46;;;;;;;11.80;6.63;;;;;;;2.76;80.40;98492.52;2181897;81;21043;-84
2022/02/23 05:18:46;;;;;;;12.20;7.27;;;;;;;2.78;81.24;98502.47;2172406;82;20972;-84
2022/02/23 05:21:47;;;;;;;15.70;7.67;;;;;;;2.75;80.97;98492.05;2172254;82;20964;-82
2022/02/23 05:24:47;;;;;;;14.40;7.50;;;;;;;2.74;81.65;98496.73;2171949;82;21000;-82
2022/02/23 05:27:49;;;;;;;11.67;7.47;;;;;;;2.72;81.92;98499.67;2161023;82;20972;-83
2022/02/23 05:30:50;;;;;;;12.37;7.30;;;;;;;2.71;81.84;98498.79;2171904;82;20996;-82
2022/02/23 05:33:50;;;;;;;13.23;6.93;;;;;;;2.77;81.77;98498.14;2172228;82;21015;-82
2022/02/23 05:36:51;;;;;;;11.17;6.60;;;;;;;2.79;82.39;98512.84;2172388;82;20921;-83
2022/02/23 05:39:51;;;;;;;17.20;6.77;;;;;;;2.77;82.60;98512.31;2172658;82;20980;-81
2022/02/23 05:42:53;;;;;;;9.30;7.07;;;;;;;2.80;83.26;98520.16;2172919;82;21015;-83
2022/02/23 05:45:54;;;;;;;14.63;8.23;;;;;;;2.83;83.15;98514.70;2172439;82;21031;-85
2022/02/23 05:48:55;;;;;;;18.73;8.33;;;;;;;2.83;82.83;98521.56;2172118;82;20948;-86
2022/02/23 05:51:55;;;;;;;16.67;8.30;;;;;;;2.86;83.15;98521.27;2173056;82;20952;-80
2022/02/23 05:54:56;;;;;;;19.90;8.53;;;;;;;2.92;83.59;98515.45;2172715;82;20996;-83
2022/02/23 05:57:56;;;;;;;25.70;12.50;;;;;;;2.97;84.70;98517.78;2172405;82;20957;-82
2022/02/23 06:00:57;;;;;;;15.53;9.23;;;;;;;3.03;83.97;98516.72;2172017;82;21380;-83
2022/02/23 06:03:57;;;;;;;17.90;7.00;;;;;;;3.08;84.08;98524.20;2171831;82;20921;-82
2022/02/23 06:06:58;;;;;;;16.80;9.77;;;;;;;3.12;85.08;98530.35;2171689;82;20968;-80
2022/02/23 06:09:58;;;;;;;9.83;7.53;;;;;;;3.14;84.82;98536.03;2171522;82;20948;-83
2022/02/23 06:12:59;;;;;;;10.23;7.27;;;;;;;3.19;84.64;98546.11;2172263;82;20973;-83
2022/02/23 06:16:01;;;;;;;14.57;7.57;;;;;;;3.22;85.85;98556.06;2171788;81;20988;-83
2022/02/23 06:19:01;;;;;;;10.77;7.10;;;;;;;3.23;85.34;98565.55;2172238;82;21435;-83
2022/02/23 06:22:02;;;;;;;14.83;7.30;;;;;;;3.24;85.52;98578.52;2171717;82;20972;-82
2022/02/23 06:25:03;;;;;;;12.20;7.07;;;;;;;3.27;86.24;98583.78;2172079;82;21439;-80
2022/02/23 06:28:03;;;;;;;10.57;6.60;;;;;;;3.31;86.41;98579.20;2172470;82;20952;-81
2022/02/23 06:31:04;;;;;;;14.17;7.00;;;;;;;3.37;86.42;98591.44;2172471;82;20996;-85
2022/02/23 06:34:04;;;;;;;11.57;6.40;;;;;;;3.44;87.35;98593.41;2172458;82;20983;-85
2022/02/23 06:37:06;;;;;;;15.50;7.03;;;;;;;3.52;86.11;98598.47;2171291;81;21407;-85
2022/02/23 06:40:07;;;;;;;15.13;6.53;;;;;;;3.57;85.93;98601.21;2171679;82;20948;-85
2022/02/23 06:43:07;;;;;;;16.07;6.53;;;;;;;3.62;86.12;98608.70;2172460;82;20972;-85
2022/02/23 06:46:08;;;;;;;15.50;6.40;;;;;;;3.67;85.49;98610.62;2171878;82;21024;-87
2022/02/23 06:49:08;;;;;;;18.67;6.63;;;;;;;3.73;85.41;98622.45;2171501;82;21004;-81
2022/02/23 06:52:09;;;;;;;13.60;5.63;;;;;;;3.78;84.94;98613.16;2172363;82;20964;-82
2022/02/23 06:55:11;;;;;;;18.70;6.40;;;;;;;3.86;84.33;98622.88;2171841;82;20992;-84
2022/02/23 06:58:11;;;;;;;16.00;5.27;;;;;;;3.91;84.37;98628.67;2172301;82;21432;-83
2022/02/23 07:01:14;;;;;;;17.87;7.27;;;;;;;3.96;84.56;98637.86;2172126;82;20977;-84
2022/02/23 07:10:39;;;;;;;18.07;4.93;;;;;;;4.12;83.75;98656.93;2316378;77;21014;-84
2022/02/23 07:13:40;;;;;;;13.17;4.93;;;;;;;4.19;83.84;98675.69;2316093;77;20997;-83
2022/02/23 07:19:43;;;;;;;18.20;5.37;;;;;;;4.27;83.13;98663.91;2285455;77;21585;-84
2022/02/23 07:22:46;;;;;;;22.93;6.23;;;;;;;4.32;82.94;98680.44;2316310;77;20983;-84
2022/02/23 07:25:49;;;;;;;22.40;5.67;;;;;;;4.42;82.69;98688.13;2284382;77;21444;-83
2022/02/23 07:28:50;;;;;;;29.10;8.17;;;;;;;4.52;82.26;98691.89;2315202;77;20935;-84
2022/02/23 07:31:50;;;;;;;20.83;5.70;;;;;;;4.58;82.21;98696.84;2315700;77;21018;-83
2022/02/23 07:34:51;;;;;;;24.97;5.43;;;;;;;4.63;81.74;98709.52;2315157;77;21077;-83
2022/02/23 07:37:54;;;;;;;22.27;5.83;;;;;;;4.66;81.02;98716.49;2314637;77;20985;-81
2022/02/23 07:40:54;;;;;;;15.30;4.20;;;;;;;4.55;81.85;98729.47;2314132;77;21678;-82
2022/02/23 07:43:54;;;;;;;13.47;3.27;;;;;;;4.33;82.22;98741.63;2314888;77;20924;-82
2022/02/23 07:46:55;;;;;;;16.87;3.90;;;;;;;4.10;82.30;98749.88;2314648;77;20994;-82
2022/02/23 07:49:56;;;;;;;20.03;4.53;;;;;;;3.79;83.13;98764.67;2314773;77;20954;-82
2022/02/23 07:53:00;;;;;;;18.90;5.37;;;;;;;3.58;83.99;98762.98;2316447;77;21424;-83
2022/02/23 07:56:01;;;;;;;16.30;4.67;;;;;;;3.36;84.69;98783.19;2315772;77;21014;-84
2022/02/23 07:59:02;;;;;;;17.07;3.83;;;;;;;3.06;85.53;98808.64;2315132;77;20998;-83
2022/02/23 08:02:03;;;;;;;17.50;3.63;;;;;;;2.82;86.32;98809.80;2314854;77;21424;-82
2022/02/23 08:05:06;;;;;;;19.57;3.67;;;;;;;2.69;87.36;98815.27;2315572;75;21081;-83
2022/02/23 08:08:07;;;;;;;12.00;3.50;;;;;;;2.62;88.29;98834.75;2315063;77;21058;-83
2022/02/23 08:11:08;;;;;;;10.80;3.03;;;;;;;2.58;88.88;98828.95;2314966;77;21155;-82
2022/02/23 08:14:08;;;;;;;14.10;2.77;;;;;;;2.57;88.98;98823.33;2314605;77;20994;-82
2022/02/23 08:20:28;;;;;;;15.30;6.00;;;;;;;2.66;88.74;98816.02;2314059;77;21654;-83
2022/02/23 08:23:28;;;;;;;19.03;6.03;;;;;;;2.87;88.44;98813.45;2314340;77;20967;-84
2022/02/23 08:26:29;;;;;;;15.97;5.73;;;;;;;3.05;88.65;98823.23;2313845;77;20974;-81
2022/02/23 08:29:30;;;;;;;24.83;8.40;;;;;;;3.31;89.07;98822.11;2314269;77;21010;-82
2022/02/23 08:32:30;;;;;;;30.50;8.80;;;;;;;3.65;88.48;98826.93;2314407;77;20966;-81
2022/02/23 08:35:31;;;;;;;25.87;7.27;;;;;;;4.01;87.25;98823.16;2314717;77;21049;-81
2022/02/23 08:38:32;;;;;;;20.53;5.93;;;;;;;4.34;86.17;98837.75;2314169;77;20989;-82
2022/02/23 08:41:33;;;;;;;20.93;7.67;;;;;;;4.66;84.40;98846.64;2315676;77;21082;-82
2022/02/23 08:44:33;;;;;;;24.10;5.83;;;;;;;4.80;84.15;98853.59;2315768;77;21413;-82
2022/02/23 08:50:36;;;;;;;31.77;6.87;;;;;;;4.97;81.41;98869.27;2284360;77;21028;-83
2022/02/23 08:53:36;;;;;;;28.43;6.07;;;;;;;5.05;80.74;98866.53;2315323;77;20963;-82
2022/02/23 08:56:37;;;;;;;26.57;5.07;;;;;;;5.11;80.51;98877.50;2314845;77;21448;-83
2022/02/23 08:59:37;;;;;;;20.27;5.50;;;;;;;5.18;79.27;98865.64;2314252;77;21002;-81
2022/02/23 09:02:38;;;;;;;27.07;5.83;;;;;;;5.18;78.08;98879.47;2314199;77;20998;-83
2022/02/23 09:05:38;;;;;;;23.70;5.47;;;;;;;5.23;79.22;98874.06;2311763;77;21084;-81
2022/02/23 09:08:39;;;;;;;17.53;5.20;;;;;;;5.29;77.80;98877.27;2300667;77;20960;-81
2022/02/23 09:11:40;;;;;;;19.90;5.53;;;;;;;5.33;77.71;98873.95;2300786;77;20984;-82
2022/02/23 09:14:42;;;;;;;23.73;6.27;;;;;;;5.37;78.49;98879.69;2300793;77;21399;-81
2022/02/23 09:17:44;;;;;;;19.40;5.23;;;;;;;5.34;77.67;98875.30;2300588;77;21734;-85
2022/02/23 09:20:45;;;;;;;23.77;6.60;;;;;;;5.25;76.99;98880.58;2300782;77;21075;-84
2022/02/23 09:26:48;;;;;;;23.93;6.43;;;;;;;5.26;77.80;98893.57;2274924;77;20984;-82
2022/02/23 09:29:48;;;;;;;24.80;4.60;;;;;;;5.34;77.52;98901.17;2300740;77;20948;-82
2022/02/23 09:32:49;;;;;;;25.23;5.40;;;;;;;5.37;75.18;98893.92;2300967;77;20949;-83
2022/02/23 09:36:01;;;;;;;22.10;5.47;;;;;;;5.33;75.10;98905.01;2300840;77;21024;-83
2022/02/23 09:38:58;;;;;;;24.43;6.37;;;;;;;5.37;75.44;98905.58;2299623;77;21029;-83
2022/02/23 09:41:59;;;;;;;22.77;5.73;;;;;;;5.44;74.59;98914.01;2301233;77;20969;-83
2022/02/23 09:45:00;;;;;;;26.53;6.13;;;;;;;5.54;75.02;98904.42;2301715;77;20984;-82
2022/02/23 09:48:00;;;;;;;24.03;6.70;;;;;;;5.49;74.57;98911.57;2301435;77;20921;-86
2022/02/23 09:51:01;;;;;;;16.70;6.10;;;;;;;5.40;75.33;98910.44;2301927;77;20925;-83
2022/02/23 09:54:01;;;;;;;22.23;4.70;;;;;;;5.30;76.30;98928.20;2301934;77;20925;-83
2022/02/23 09:57:02;;;;;;;21.07;5.00;;;;;;;5.12;75.73;98926.71;2301600;77;20941;-83
2022/02/23 10:00:05;;;;;;;19.67;4.90;;;;;;;4.92;77.61;98949.72;2301163;77;20965;-84
2022/02/23 10:03:05;;;;;;;23.37;6.50;;;;;;;4.74;78.67;98968.45;2301590;77;20976;-84
2022/02/23 10:06:06;;;;;;;24.83;6.00;;;;;;;4.57;79.45;98959.19;2296682;77;21008;-84
2022/02/23 10:09:06;;;;;;;24.83;6.67;;;;;;;4.69;79.77;98954.47;2283649;78;21353;-84
2022/02/23 10:12:07;;;;;;;30.60;8.50;;;;;;;4.85;79.61;98953.32;2283471;78;20915;-84
2022/02/23 10:15:08;;;;;;;18.63;6.03;;;;;;;5.03;79.53;98958.73;2283543;78;20998;-79
2022/02/23 10:18:08;;;;;;;19.77;5.43;;;;;;;5.27;78.72;98944.92;2282532;78;20973;-79
2022/02/23 10:21:09;;;;;;;21.93;5.80;;;;;;;5.60;75.92;98951.23;2280576;78;21020;-79
2022/02/23 10:24:09;;;;;;;19.67;4.57;;;;;;;5.99;74.69;98954.25;2282031;78;21026;-79
2022/02/23 10:27:10;;;;;;;18.93;4.77;;;;;;;6.31;72.73;98950.09;2282656;78;20990;-79
2022/02/23 10:30:11;;;;;;;18.67;5.07;;;;;;;6.52;70.59;98950.27;2283726;78;20965;-78
2022/02/23 10:33:12;;;;;;;16.33;4.30;;;;;;;6.54;69.57;98978.42;2282324;78;21008;-78
2022/02/23 10:36:15;;;;;;;20.27;4.80;;;;;;;6.57;68.89;98970.73;2282216;78;21018;-78
2022/02/23 10:39:17;;;;;;;19.40;5.10;;;;;;;6.87;70.07;98980.70;2282589;77;20998;-79
2022/02/23 10:42:17;;;;;;;18.03;5.10;;;;;;;6.99;68.52;98982.38;2282123;77;21029;-78
2022/02/23 10:45:18;;;;;;;17.20;4.50;;;;;;;7.11;69.16;98973.17;2281713;78;21373;-78
2022/02/23 10:48:19;;;;;;;15.60;4.73;;;;;;;6.99;66.65;98983.67;2281550;78;21437;-78
2022/02/23 10:51:19;;;;;;;19.33;6.03;;;;;;;6.80;66.65;98994.34;2281348;78;21452;-79
2022/02/23 10:54:20;;;;;;;15.50;5.23;;;;;;;6.76;67.55;98987.72;2280359;78;20967;-79
2022/02/23 10:57:22;;;;;;;20.23;6.27;;;;;;;6.79;66.90;98992.99;2280097;78;20970;-78
2022/02/23 11:00:22;;;;;;;20.87;7.70;;;;;;;6.89;67.50;98991.12;2278987;78;20997;-78
2022/02/23 11:03:23;;;;;;;19.43;7.50;;;;;;;6.82;66.50;98992.66;2280935;78;21726;-79
2022/02/23 11:06:23;;;;;;;17.93;6.27;;;;;;;6.80;67.15;99014.21;2285270;77;21059;-79
2022/02/23 11:09:24;;;;;;;21.70;7.77;;;;;;;6.77;66.69;99003.74;2298105;77;21332;-79
2022/02/23 11:12:24;;;;;;;15.73;5.27;;;;;;;6.80;65.22;99009.91;2299291;77;20985;-79
2022/02/23 11:15:25;;;;;;;22.97;5.77;;;;;;;6.81;65.09;99003.00;2299536;77;21031;-79
2022/02/23 11:18:25;;;;;;;20.43;5.70;;;;;;;6.79;65.20;99009.86;2297838;77;20984;-77
2022/02/23 11:21:26;;;;;;;15.83;5.40;;;;;;;6.73;65.12;99007.97;2297969;77;20992;-78
2022/02/23 11:24:26;;;;;;;15.97;5.50;;;;;;;6.76;64.84;99011.06;2298770;77;21187;-78
2022/02/23 11:27:27;;;;;;;16.93;5.83;;;;;;;6.84;64.54;99009.16;2297605;77;21012;-80
2022/02/23 11:30:28;;;;;;;17.93;5.27;;;;;;;6.86;63.48;99013.97;2271249;77;21439;-79
2022/02/23 11:33:28;;;;;;;22.83;5.33;;;;;;;6.95;63.95;99001.72;2298086;77;20983;-79
2022/02/23 11:36:31;;;;;;;17.83;4.30;;;;;;;6.97;62.97;99013.90;2299294;77;21859;-79
2022/02/23 11:39:33;;;;;;;14.57;4.63;;;;;;;7.01;63.27;99015.74;2300098;77;21436;-78
2022/02/23 11:42:34;;;;;;;15.93;3.37;;;;;;;6.99;61.74;99018.71;2300237;77;21032;-78
2022/02/23 11:45:34;;;;;;;16.27;4.90;;;;;;;6.78;59.81;99031.45;2300310;77;21012;-79
2022/02/23 11:48:35;;;;;;;16.03;6.13;;;;;;;6.58;61.33;99030.85;2298007;77;20941;-79
2022/02/23 11:51:36;;;;;;;19.77;8.03;;;;;;;6.40;61.86;99032.46;2300567;77;21013;-79
2022/02/23 11:54:37;;;;;;;20.73;5.57;;;;;;;6.31;61.56;99027.87;2299838;77;21060;-81
2022/02/23 11:57:38;;;;;;;12.83;3.80;;;;;;;6.26;61.85;99047.58;2299859;77;21443;-77
2022/02/23 12:00:38;;;;;;;14.40;4.50;;;;;;;6.17;62.09;99038.63;2299684;77;21467;-75
2022/02/23 12:03:39;;;;;;;16.90;5.13;;;;;;;6.08;62.14;99053.88;2299442;77;20972;-78
2022/02/23 12:06:39;;;;;;;13.20;5.33;;;;;;;6.07;63.01;99055.59;2300827;77;21035;-78
2022/02/23 12:09:40;;;;;;;13.70;4.57;;;;;;;6.12;63.14;99062.22;2302120;77;20913;-79
2022/02/23 12:12:40;;;;;;;15.23;4.17;;;;;;;6.25;62.11;99049.71;2300956;77;21009;-78
2022/02/23 12:15:41;;;;;;;18.00;5.47;;;;;;;6.30;61.99;99055.92;2298851;77;20976;-78
2022/02/23 12:18:41;;;;;;;18.30;5.17;;;;;;;6.24;63.52;99080.77;2299070;77;20948;-78
2022/02/23 12:21:42;;;;;;;15.17;5.40;;;;;;;5.95;64.95;99077.18;2299457;77;20949;-77
2022/02/23 12:24:43;;;;;;;15.50;5.70;;;;;;;5.82;65.59;99081.45;2299270;77;21016;-78
2022/02/23 12:27:43;;;;;;;18.60;5.37;;;;;;;5.92;65.68;99088.73;2275162;77;20953;-78
2022/02/23 12:30:44;;;;;;;23.43;8.00;;;;;;;6.09;66.26;99094.11;2302083;77;20926;-79
2022/02/23 12:33:44;;;;;;;21.93;6.03;;;;;;;6.23;64.78;99095.44;2300964;77;20952;-79
2022/02/23 12:36:49;;;;;;;17.43;5.90;;;;;;;6.31;64.04;99098.28;2300959;77;20985;-77
2022/02/23 12:39:50;;;;;;;22.20;6.15;;;;;;;6.36;63.78;99109.69;2301062;77;21295;-79
2022/02/23 12:42:50;;;;;;;14.37;5.33;;;;;;;6.37;63.11;99104.55;2301404;77;20983;-79
2022/02/23 12:45:50;;;;;;;14.77;4.37;;;;;;;6.42;62.84;99109.00;2301130;77;20973;-77
2022/02/23 12:48:51;;;;;;;14.17;5.13;;;;;;;6.39;61.46;99114.97;2301101;77;20956;-79
2022/02/23 12:51:52;;;;;;;14.93;6.00;;;;;;;6.32;60.80;99126.85;2299505;77;20960;-78
2022/02/23 12:54:55;;;;;;;12.00;4.33;;;;;;;6.29;61.61;99115.09;2299111;77;21841;-78
2022/02/23 12:57:54;;;;;;;12.30;4.40;;;;;;;6.27;59.81;99117.16;2300068;77;21060;-80
2022/02/23 13:00:56;;;;;;;12.77;3.63;;;;;;;6.27;60.28;99119.34;2299773;77;20965;-78
2022/02/23 13:03:57;;;;;;;18.00;5.07;;;;;;;6.28;59.62;99124.98;2299642;77;20944;-78
2022/02/23 13:07:01;;;;;;;16.23;4.83;;;;;;;6.26;59.58;99121.47;2294320;76;21092;-78
2022/02/23 13:10:02;;;;;;;24.07;4.83;;;;;;;6.21;60.39;99123.02;2282359;77;21072;-78
2022/02/23 13:13:03;;;;;;;20.77;5.10;;;;;;;6.19;60.85;99130.28;2281873;78;20986;-77
2022/02/23 13:16:04;;;;;;;17.53;5.03;;;;;;;6.13;61.21;99126.19;2281663;78;20954;-77
2022/02/23 13:19:04;;;;;;;19.00;4.20;;;;;;;6.13;59.91;99141.33;2280231;78;20978;-78
2022/02/23 13:22:05;;;;;;;17.87;4.57;;;;;;;6.20;59.26;99123.86;2280744;78;21016;-83
2022/02/23 13:25:05;;;;;;;14.53;4.50;;;;;;;6.29;59.00;99139.72;2282623;78;21025;-81
2022/02/23 13:28:07;;;;;;;21.30;4.37;;;;;;;6.35;59.29;99141.21;2282134;78;20915;-81
2022/02/23 13:31:08;;;;;;;17.47;5.10;;;;;;;6.45;59.58;99145.41;2282199;78;21041;-81
2022/02/23 13:34:08;;;;;;;19.27;5.43;;;;;;;6.56;60.73;99136.27;2282439;78;20938;-80
2022/02/23 13:37:10;;;;;;;16.90;5.80;;;;;;;6.66;60.35;99135.30;2282415;78;20975;-80
2022/02/23 13:40:15;;;;;;;14.87;4.53;;;;;;;6.72;60.32;99145.00;2282321;78;21462;-81
2022/02/23 13:43:15;;;;;;;20.30;6.53;;;;;;;6.73;59.59;99140.69;2283437;78;21061;-81
2022/02/23 13:46:15;;;;;;;19.43;4.93;;;;;;;6.84;60.06;99145.38;2283708;78;21010;-82
2022/02/23 13:49:16;;;;;;;14.27;4.80;;;;;;;7.03;59.70;99138.66;2283206;78;20990;-82
2022/02/23 13:52:17;;;;;;;13.87;4.47;;;;;;;7.18;58.26;99134.77;2283651;78;20950;-83
2022/02/23 13:55:17;;;;;;;16.87;5.33;;;;;;;7.16;58.45;99144.22;2283991;78;21200;-80
2022/02/23 13:58:18;;;;;;;13.63;4.63;;;;;;;7.15;58.69;99145.94;2284030;78;20950;-83
2022/02/23 14:01:18;;;;;;;17.97;4.50;;;;;;;7.08;57.99;99156.09;2283310;78;20953;-83
2022/02/23 14:04:18;;;;;;;17.50;4.33;;;;;;;6.97;58.19;99157.94;2284246;78;20973;-78
2022/02/23 14:07:19;;;;;;;19.33;5.00;;;;;;;6.88;57.03;99155.44;2288739;77;21051;-84
2022/02/23 14:10:19;;;;;;;13.20;4.83;;;;;;;6.85;57.74;99151.03;2301671;77;20957;-82
2022/02/23 14:13:20;;;;;;;19.37;4.83;;;;;;;6.88;57.63;99153.73;2300855;77;20945;-83
2022/02/23 14:16:20;;;;;;;18.47;5.23;;;;;;;6.88;57.77;99151.12;2301603;77;20996;-83
2022/02/23 14:19:22;;;;;;;16.27;4.90;;;;;;;6.83;57.61;99156.59;2301732;77;20989;-85
2022/02/23 14:22:23;;;;;;;21.07;6.40;;;;;;;6.77;58.56;99160.30;2301444;77;21013;-83
2022/02/23 14:25:23;;;;;;;19.07;7.43;;;;;;;6.78;57.79;99166.36;2301557;77;21489;-83
2022/02/23 14:28:23;;;;;;;16.47;4.80;;;;;;;6.82;58.15;99175.59;2301624;77;21004;-84
2022/02/23 14:31:24;;;;;;;19.27;4.30;;;;;;;6.75;58.24;99177.94;2302360;77;21019;-83